首页
METAR-TAF:

METAR-TAF

机场 :

Army Air Corps Middle Wallop

Middle Wallop, 英格兰

纬度: 51-09N, 经度: 001-34W, 海拔: 91米

当前天气观测

该预报发布于27分钟前的04:50 UTC
风速3节,风向东转东北
温度 -2°C
湿度 100%
气压 1016 hPa
能見度: 4900

METAR: EGVP 190450Z AUTO 07003KT 4900 // FEW001/// OVC027/// M02/M02 Q1016

时间: 05:17 (05:17 UTC)

预报

该预报发布于9小时和22分钟前的19:55 UTC
预报有效从18日的 21点(UTC)到 18日的 23点(UTC)
风速2节,风向多变
能见度10公里或以上
少量云层高于2400英尺
成为
从 18日的 21点(UTC)到 18日的 23点(UTC)
能見度: 3000
轻雾
几率 30%
从 18日的 21点(UTC)到 18日的 23点(UTC)
能見度: 1200
轻雾, 浅雾

TAF: EGVP 181955Z 1821/1823 VRB02KT 9999 FEW024 BECMG 1821/1823 3000 BR PROB30 1821/1823 1200 BR MIFG

超过4000个机场的气象观测和天气预报(METAR&TAF报告)。

可查询的气象台以黄色和红色小点在地图上表示。

将鼠标移到小点上方,可查看气象台名称。

然后点击查看天气观测和预报。

如需切换地图:点击带黑十字的绿色按钮放大地图;点击带横线的绿色按钮缩小地图;或者点击绿色箭头查看邻近地区的地图。


METAR-TAF: